Time;durP1;ratioP1;P1;durP2;ratioP2;P2;SDS_P1;SDS_P2;PMS_P1;PMS_P2;Temp;Humidity;BMP_temperature;BMP_pressure;BME280_temperature;BME280_humidity;BME280_pressure;Samples;Min_cycle;Max_cycle;Signal;HPM_P1;HPM_P2
2023/07/17 00:00:15;;;;;;;6.10;1.90;;;;;;;21.04;54.53;99559.39;78369;1298;3056313;-63
2023/07/17 00:02:42;;;;;;;6.20;2.10;;;;;;;20.98;55.13;99564.27;79568;1294;3011778;-63
2023/07/17 00:05:11;;;;;;;5.60;2.30;;;;;;;20.92;55.53;99563.28;79156;1298;3013524;-61
2023/07/17 00:07:40;;;;;;;7.10;2.40;;;;;;;20.87;55.99;99562.30;79706;1298;3013158;-63
2023/07/17 00:10:08;;;;;;;6.90;2.20;;;;;;;20.81;56.05;99565.27;79605;1297;3011783;-62
2023/07/17 00:12:37;;;;;;;3.80;1.70;;;;;;;20.76;55.79;99569.14;78441;1293;3069488;-61
2023/07/17 00:15:05;;;;;;;7.30;2.10;;;;;;;20.74;55.70;99562.02;79785;1295;3014617;-62
2023/07/17 00:17:38;;;;;;;10.80;2.60;;;;;;;20.74;55.28;99560.61;78384;1298;3049363;-60
2023/07/17 00:20:06;;;;;;;5.20;2.30;;;;;;;20.76;54.75;99559.68;79750;1298;3018488;-61
2023/07/17 00:22:34;;;;;;;7.20;2.20;;;;;;;20.76;54.60;99561.27;79644;1293;3012981;-63
2023/07/17 00:25:04;;;;;;;5.00;2.20;;;;;;;20.79;54.15;99561.91;78385;1298;3052977;-60
2023/07/17 00:27:31;;;;;;;5.80;2.00;;;;;;;20.80;54.15;99557.88;79647;1297;3011578;-61
2023/07/17 00:30:00;;;;;;;5.60;2.10;;;;;;;20.74;54.36;99560.24;79076;1294;3013251;-61
2023/07/17 00:32:27;;;;;;;7.20;2.30;;;;;;;20.76;54.11;99558.65;79683;1292;3013264;-62
2023/07/17 00:34:54;;;;;;;5.20;2.00;;;;;;;20.77;53.99;99554.83;79491;1293;3011989;-63
2023/07/17 00:37:22;;;;;;;6.10;2.20;;;;;;;20.76;54.06;99553.27;78350;1293;3049854;-61
2023/07/17 00:39:49;;;;;;;5.30;2.20;;;;;;;20.72;54.17;99556.02;79651;1298;3012842;-60
2023/07/17 00:42:17;;;;;;;3.30;2.00;;;;;;;20.73;54.48;99552.77;79824;1297;3011763;-61
2023/07/17 00:44:45;;;;;;;4.70;1.80;;;;;;;20.68;54.74;99553.58;78301;1298;3053310;-61
2023/07/17 00:47:12;;;;;;;5.50;2.10;;;;;;;20.68;54.86;99553.75;79607;1292;3013352;-62
2023/07/17 00:49:40;;;;;;;4.40;2.20;;;;;;;20.64;55.10;99552.90;79624;1298;3011431;-63
2023/07/17 00:52:09;;;;;;;4.90;2.00;;;;;;;20.61;54.82;99556.21;78342;1298;3050989;-60
2023/07/17 00:54:36;;;;;;;4.40;2.30;;;;;;;20.61;54.82;99555.48;79646;1298;3013468;-62
2023/07/17 00:57:04;;;;;;;6.20;2.10;;;;;;;20.56;54.93;99556.75;79815;1297;3011703;-65
2023/07/17 00:59:32;;;;;;;3.90;1.90;;;;;;;20.57;54.63;99555.91;78214;1296;3052152;-62
2023/07/17 01:01:58;;;;;;;5.90;2.30;;;;;;;20.58;54.74;99551.86;79459;1295;3013267;-66
2023/07/17 01:04:25;;;;;;;7.30;2.20;;;;;;;20.54;54.86;99556.20;79391;1298;3011559;-62
2023/07/17 01:06:54;;;;;;;7.60;1.90;;;;;;;20.54;54.56;99552.13;78320;1298;3026175;-59
2023/07/17 01:09:21;;;;;;;5.10;1.90;;;;;;;20.55;54.67;99554.67;79505;1298;3013785;-61
2023/07/17 01:11:52;;;;;;;6.00;1.70;;;;;;;20.55;55.00;99552.21;78233;1297;3068936;-62
2023/07/17 01:14:19;;;;;;;6.50;1.80;;;;;;;20.53;55.48;99558.64;79547;1295;3020959;-63
2023/07/17 01:16:47;;;;;;;6.00;2.00;;;;;;;20.54;55.56;99557.27;79518;1297;3011904;-62
2023/07/17 01:19:15;;;;;;;8.90;2.10;;;;;;;20.48;55.86;99559.86;78341;1296;3054084;-59
2023/07/17 01:21:58;;;;;;;5.40;2.60;;;;;;;20.44;55.78;99557.69;79442;1298;3013379;-63
2023/07/17 01:24:27;;;;;;;5.80;1.90;;;;;;;20.45;55.77;99563.48;78340;1298;3053817;-61
2023/07/17 01:26:54;;;;;;;5.60;1.90;;;;;;;20.41;56.08;99567.86;79540;1297;3013252;-63
2023/07/17 01:29:20;;;;;;;4.90;2.30;;;;;;;20.39;56.28;99570.09;79689;1292;3013086;-64
2023/07/17 01:31:48;;;;;;;8.40;2.70;;;;;;;20.36;56.76;99569.20;78479;1298;3026745;-59
2023/07/17 01:34:15;;;;;;;4.60;2.40;;;;;;;20.30;57.14;99568.41;79619;1293;3020524;-60
2023/07/17 01:36:43;;;;;;;9.90;3.20;;;;;;;20.32;57.23;99570.36;79597;1295;3011587;-63
2023/07/17 01:39:10;;;;;;;9.50;3.60;;;;;;;20.28;57.68;99571.23;78235;1298;3053445;-60
2023/07/17 01:41:38;;;;;;;11.00;5.20;;;;;;;20.28;57.81;99574.65;79504;1294;3013791;-62
2023/07/17 01:44:05;;;;;;;12.10;6.30;;;;;;;20.25;57.90;99572.27;79510;1298;3011572;-61
2023/07/17 01:46:33;;;;;;;9.60;6.50;;;;;;;20.21;58.10;99574.98;78373;1298;3047938;-63
2023/07/17 01:48:59;;;;;;;7.40;4.50;;;;;;;20.19;58.29;99571.75;79621;1298;3013838;-60
2023/07/17 01:51:27;;;;;;;13.90;5.70;;;;;;;20.19;58.68;99571.92;79479;1295;3011789;-61
2023/07/17 01:53:55;;;;;;;20.60;9.50;;;;;;;20.16;59.04;99571.90;78352;1298;3054716;-60
2023/07/17 01:56:22;;;;;;;17.90;8.70;;;;;;;20.14;59.25;99577.60;79493;1298;3011721;-64
2023/07/17 01:58:49;;;;;;;14.20;8.60;;;;;;;20.14;59.53;99582.09;79445;1295;3013858;-62
2023/07/17 02:01:17;;;;;;;16.20;9.40;;;;;;;20.13;59.59;99584.80;78465;1293;3028613;-63
2023/07/17 02:03:48;;;;;;;14.10;9.60;;;;;;;20.12;59.82;99590.42;79620;1292;3011623;-61
2023/07/17 02:06:16;;;;;;;16.50;8.10;;;;;;;20.13;59.85;99586.94;78356;1298;3049720;-61
2023/07/17 02:08:43;;;;;;;16.60;8.70;;;;;;;20.14;59.85;99589.52;79597;1297;3013573;-61
2023/07/17 02:11:10;;;;;;;16.20;9.40;;;;;;;20.13;60.14;99580.36;79578;1293;3013612;-59
2023/07/17 02:13:37;;;;;;;21.80;9.80;;;;;;;20.13;60.07;99584.98;78378;1293;3028033;-60
2023/07/17 02:16:05;;;;;;;16.20;10.20;;;;;;;20.13;60.32;99587.10;79527;1296;3013691;-59
2023/07/17 02:18:31;;;;;;;13.70;6.10;;;;;;;20.12;60.48;99586.36;79342;1295;3013643;-60
2023/07/17 02:21:01;;;;;;;9.40;4.20;;;;;;;20.16;60.49;99587.23;78341;1296;3049478;-61
2023/07/17 02:23:28;;;;;;;13.80;8.20;;;;;;;20.20;60.52;99586.14;79515;1301;3021240;-59
2023/07/17 02:25:55;;;;;;;13.70;5.60;;;;;;;20.24;60.30;99587.48;79454;1298;3011671;-62
2023/07/17 02:28:23;;;;;;;13.80;5.60;;;;;;;20.35;59.82;99587.40;78326;1298;3029524;-61
2023/07/17 02:30:50;;;;;;;13.00;5.40;;;;;;;20.39;59.65;99588.30;79482;1296;3013064;-62
2023/07/17 02:33:16;;;;;;;11.20;6.20;;;;;;;20.39;59.55;99588.84;79434;1298;3011552;-63
2023/07/17 02:35:46;;;;;;;12.30;6.60;;;;;;;20.35;59.09;99591.67;78287;1298;3051487;-60
2023/07/17 02:38:13;;;;;;;15.10;9.40;;;;;;;20.34;59.17;99588.59;79555;1298;3013087;-61
2023/07/17 02:40:39;;;;;;;16.50;8.00;;;;;;;20.34;58.89;99590.36;79509;1298;3013358;-63
2023/07/17 02:43:09;;;;;;;15.70;6.50;;;;;;;20.36;59.05;99590.41;78311;1304;3052162;-61
2023/07/17 02:45:36;;;;;;;16.80;9.90;;;;;;;20.33;59.42;99589.92;79444;1296;3013733;-62
2023/07/17 02:48:06;;;;;;;16.30;7.70;;;;;;;20.33;59.22;99594.05;78301;1298;3028394;-60
2023/07/17 02:50:33;;;;;;;11.80;6.60;;;;;;;20.31;59.48;99591.95;79531;1298;3013060;-60
2023/07/17 02:53:00;;;;;;;10.70;5.40;;;;;;;20.32;59.37;99587.20;79532;1298;3012273;-61
2023/07/17 02:55:28;;;;;;;17.40;8.80;;;;;;;20.32;59.14;99589.20;78254;1298;3028408;-61
2023/07/17 02:57:55;;;;;;;14.40;6.40;;;;;;;20.32;58.97;99589.74;79471;1300;3018503;-62
2023/07/17 03:00:22;;;;;;;18.10;7.20;;;;;;;20.35;59.30;99591.67;79274;1299;3011560;-61
2023/07/17 03:02:50;;;;;;;20.10;6.80;;;;;;;20.36;59.60;99589.54;78260;1298;3026943;-62
2023/07/17 03:05:17;;;;;;;19.40;9.20;;;;;;;20.35;59.66;99594.56;79447;1298;3014910;-60
2023/07/17 03:07:45;;;;;;;16.20;6.30;;;;;;;20.27;60.41;99595.51;79393;1298;3011836;-61
2023/07/17 03:10:13;;;;;;;16.90;7.20;;;;;;;20.28;60.28;99593.67;78190;1301;3052883;-62
2023/07/17 03:12:41;;;;;;;14.60;6.00;;;;;;;20.27;60.21;99599.20;79571;1298;3019292;-61
2023/07/17 03:15:08;;;;;;;14.40;5.80;;;;;;;20.32;60.18;99597.58;79424;1296;3013122;-63
2023/07/17 03:17:37;;;;;;;11.50;5.10;;;;;;;20.25;60.58;99597.63;78134;1301;3049225;-61
2023/07/17 03:20:09;;;;;;;16.30;7.90;;;;;;;20.22;60.92;99597.42;79565;1298;3012847;-60
2023/07/17 03:22:37;;;;;;;15.10;7.50;;;;;;;20.23;60.87;99604.43;78385;1298;3050308;-62
2023/07/17 03:25:05;;;;;;;27.70;13.50;;;;;;;20.25;60.67;99607.12;79494;1308;3018343;-60
2023/07/17 03:27:32;;;;;;;23.90;13.70;;;;;;;20.27;60.44;99606.15;79495;1301;3011699;-59
2023/07/17 03:30:00;;;;;;;22.70;12.00;;;;;;;20.34;60.31;99600.73;78180;1301;3051791;-62
2023/07/17 03:32:32;;;;;;;28.70;14.80;;;;;;;20.34;60.47;99606.08;79514;1298;3013478;-60
2023/07/17 03:35:00;;;;;;;26.90;13.10;;;;;;;20.28;61.36;99615.85;78237;1300;3053801;-62
2023/07/17 03:37:27;;;;;;;26.40;14.30;;;;;;;20.23;61.77;99621.52;79558;1300;3013362;-62
2023/07/17 03:39:54;;;;;;;22.20;12.50;;;;;;;20.29;61.48;99616.29;79503;1296;3011844;-61
2023/07/17 03:42:22;;;;;;;22.40;9.90;;;;;;;20.26;61.59;99611.98;78194;1300;3026613;-62
2023/07/17 03:44:48;;;;;;;24.40;10.00;;;;;;;20.26;61.69;99616.39;79455;1296;3012872;-62
2023/07/17 03:47:16;;;;;;;22.90;8.80;;;;;;;20.22;61.95;99618.76;79363;1300;3012302;-62
2023/07/17 03:49:44;;;;;;;18.30;8.20;;;;;;;20.27;61.90;99617.61;78376;1295;3054241;-61
2023/07/17 03:52:11;;;;;;;16.80;8.50;;;;;;;20.32;61.17;99617.34;79413;1308;3013658;-64
2023/07/17 03:54:37;;;;;;;14.00;7.70;;;;;;;20.35;60.18;99616.61;79416;1299;3011764;-62
2023/07/17 03:57:05;;;;;;;20.70;8.50;;;;;;;20.42;59.20;99616.08;78289;1298;3028429;-62
2023/07/17 03:59:46;;;;;;;17.80;7.70;;;;;;;20.52;59.12;99617.13;79401;1296;3019627;-63
2023/07/17 04:02:15;;;;;;;14.90;7.10;;;;;;;20.56;58.98;99622.00;78224;1298;3050026;-62
2023/07/17 04:04:42;;;;;;;12.70;6.80;;;;;;;20.57;58.56;99621.37;79507;1298;3012914;-61
2023/07/17 04:07:08;;;;;;;15.00;6.30;;;;;;;20.59;58.67;99622.09;79394;1296;3011896;-62
2023/07/17 04:09:38;;;;;;;11.40;5.70;;;;;;;20.58;58.45;99622.13;78261;1309;3052396;-59
2023/07/17 04:12:06;;;;;;;15.10;6.40;;;;;;;20.61;58.17;99630.23;79562;1298;3012979;-62
2023/07/17 04:14:33;;;;;;;17.20;6.70;;;;;;;20.60;57.61;99626.23;79597;1296;3012875;-62
2023/07/17 04:17:03;;;;;;;14.30;7.10;;;;;;;20.69;58.10;99624.69;78410;1298;3050038;-62
2023/07/17 04:19:33;;;;;;;27.40;11.00;;;;;;;20.75;57.81;99626.40;79647;1298;3011935;-61
2023/07/17 04:22:01;;;;;;;22.40;9.20;;;;;;;20.79;58.09;99629.19;78401;1298;3049946;-63
2023/07/17 04:24:28;;;;;;;27.40;13.00;;;;;;;20.88;56.81;99630.73;79541;1298;3011610;-61
2023/07/17 04:26:55;;;;;;;24.60;11.50;;;;;;;20.95;56.86;99633.25;79596;1295;3013682;-63
2023/07/17 04:29:24;;;;;;;25.20;13.80;;;;;;;21.04;56.65;99631.77;78239;1302;3029939;-61
2023/07/17 04:31:54;;;;;;;27.70;13.60;;;;;;;21.08;56.41;99634.95;79451;1295;3012106;-60
2023/07/17 04:34:22;;;;;;;24.40;13.20;;;;;;;21.16;56.14;99638.09;78480;1298;3026299;-62
2023/07/17 04:36:49;;;;;;;32.00;15.40;;;;;;;21.20;56.28;99630.93;79599;1295;3012963;-64
2023/07/17 04:39:16;;;;;;;36.30;17.20;;;;;;;21.26;55.36;99636.20;79512;1299;3011719;-64
2023/07/17 04:41:44;;;;;;;33.10;15.80;;;;;;;21.26;55.37;99631.47;78266;1298;3025853;-60
2023/07/17 04:44:11;;;;;;;41.20;16.80;;;;;;;21.29;55.09;99633.19;79616;1298;3013209;-59
2023/07/17 04:46:38;;;;;;;30.20;14.60;;;;;;;21.33;55.30;99633.67;79585;1294;3011919;-60
2023/07/17 04:49:05;;;;;;;26.60;14.70;;;;;;;21.42;55.05;99633.05;78380;1298;3049097;-63
2023/07/17 04:51:32;;;;;;;34.40;11.50;;;;;;;21.48;54.51;99633.42;79553;1296;3013156;-63
2023/07/17 04:53:59;;;;;;;26.70;11.90;;;;;;;21.54;54.52;99633.84;79530;1300;3011963;-62
2023/07/17 04:56:27;;;;;;;19.70;10.00;;;;;;;21.63;54.20;99635.62;78378;1298;3026145;-61
2023/07/17 04:58:54;;;;;;;22.30;9.50;;;;;;;21.66;53.61;99633.45;79967;1295;3013471;-62
2023/07/17 05:01:21;;;;;;;26.60;11.30;;;;;;;21.78;53.88;99635.12;79530;1296;3011692;-63
2023/07/17 05:03:49;;;;;;;18.50;9.60;;;;;;;21.78;52.65;99635.75;78276;1308;3026815;-63
2023/07/17 05:06:16;;;;;;;16.70;9.30;;;;;;;21.80;52.69;99634.19;79691;1298;3011672;-62
2023/07/17 05:08:43;;;;;;;24.40;12.70;;;;;;;21.81;53.05;99637.47;79790;1295;3011832;-61
2023/07/17 05:11:11;;;;;;;22.60;11.40;;;;;;;21.90;52.84;99637.19;78365;1299;3052447;-59
2023/07/17 05:13:43;;;;;;;24.90;12.20;;;;;;;21.91;53.36;99636.20;79601;1296;3013346;-62
2023/07/17 05:16:11;;;;;;;17.00;6.90;;;;;;;22.05;52.82;99636.40;78309;1298;3051294;-62
2023/07/17 05:18:38;;;;;;;11.00;5.20;;;;;;;22.11;51.71;99634.98;79496;1298;3018948;-62
2023/07/17 05:21:05;;;;;;;13.80;5.90;;;;;;;22.22;52.18;99631.64;79590;1301;3011779;-62
2023/07/17 05:23:34;;;;;;;12.30;6.60;;;;;;;22.40;52.11;99638.23;78418;1298;3049613;-62
2023/07/17 05:26:04;;;;;;;13.80;5.60;;;;;;;22.43;51.09;99640.72;79721;1298;3011808;-63
2023/07/17 05:28:34;;;;;;;11.60;4.50;;;;;;;22.51;51.67;99641.69;79192;1295;3011615;-64
2023/07/17 05:31:00;;;;;;;11.20;4.70;;;;;;;22.54;50.97;99641.98;79555;1298;3013302;-62
2023/07/17 05:33:27;;;;;;;9.00;4.20;;;;;;;22.56;50.31;99638.61;79535;1298;3011626;-61
2023/07/17 05:35:56;;;;;;;7.80;3.80;;;;;;;22.60;49.43;99640.45;78580;1300;3049017;-63
2023/07/17 05:38:24;;;;;;;7.50;4.00;;;;;;;22.69;49.88;99640.08;79990;1297;3013360;-63
2023/07/17 05:41:01;;;;;;;8.10;4.40;;;;;;;22.73;50.00;99641.96;79592;1298;3011822;-63
2023/07/17 05:43:31;;;;;;;9.20;4.70;;;;;;;22.76;49.22;99640.31;78408;1298;3054308;-62
2023/07/17 05:46:03;;;;;;;6.90;3.50;;;;;;;22.79;49.62;99639.35;79558;1295;3013135;-59
2023/07/17 05:48:31;;;;;;;6.60;3.10;;;;;;;22.90;49.48;99635.09;78408;1298;3050957;-67
2023/07/17 05:50:57;;;;;;;6.80;2.90;;;;;;;23.02;48.95;99634.84;79573;1299;3012945;-64
2023/07/17 05:53:24;;;;;;;7.00;3.20;;;;;;;23.04;48.36;99634.46;79428;1298;3011919;-60
2023/07/17 05:55:52;;;;;;;8.10;3.00;;;;;;;23.04;48.34;99634.16;78378;1298;3028186;-63
2023/07/17 05:58:20;;;;;;;6.10;2.90;;;;;;;23.07;47.85;99633.01;79662;1295;3020861;-59
2023/07/17 06:00:48;;;;;;;7.40;3.10;;;;;;;23.08;47.62;99634.41;79638;1295;3013700;-65
2023/07/17 06:03:17;;;;;;;7.20;2.90;;;;;;;23.10;47.91;99633.48;78195;1296;3050210;-59
2023/07/17 06:05:46;;;;;;;9.40;2.80;;;;;;;23.23;48.12;99637.17;79613;1294;3011272;-63
2023/07/17 06:08:15;;;;;;;8.80;3.00;;;;;;;23.28;47.32;99634.02;80421;1298;3011612;-63
2023/07/17 06:10:42;;;;;;;5.60;2.70;;;;;;;23.35;47.67;99630.54;79356;1296;3013526;-60
2023/07/17 06:13:09;;;;;;;6.70;2.90;;;;;;;23.43;47.45;99631.46;80330;1294;3013723;-61
2023/07/17 06:15:37;;;;;;;6.10;2.60;;;;;;;23.53;47.86;99627.96;78239;1298;3052813;-62
2023/07/17 06:18:04;;;;;;;7.40;2.90;;;;;;;23.63;46.61;99630.84;79579;1297;3013489;-62
2023/07/17 06:20:31;;;;;;;6.60;2.90;;;;;;;23.72;47.08;99629.09;79442;1297;3011411;-62
2023/07/17 06:22:59;;;;;;;3.60;2.30;;;;;;;23.78;46.17;99632.89;78239;1300;3049755;-61
2023/07/17 06:25:26;;;;;;;5.30;2.50;;;;;;;23.76;45.29;99632.86;79458;1295;3021207;-62
2023/07/17 06:27:52;;;;;;;6.20;3.00;;;;;;;23.81;45.66;99632.88;79487;1296;3013669;-61
2023/07/17 06:30:20;;;;;;;5.90;2.70;;;;;;;23.87;45.95;99626.79;78239;1297;3026368;-61
2023/07/17 06:32:47;;;;;;;4.10;2.90;;;;;;;23.99;44.86;99627.31;79569;1297;3019234;-64
2023/07/17 06:35:14;;;;;;;5.50;3.00;;;;;;;23.97;43.76;99632.86;79448;1297;3011752;-62
2023/07/17 06:37:42;;;;;;;13.30;4.50;;;;;;;24.03;44.08;99634.33;78295;1298;3028418;-63
2023/07/17 06:40:10;;;;;;;12.30;5.70;;;;;;;24.03;44.18;99631.11;79487;1300;3013766;-61
2023/07/17 06:42:37;;;;;;;10.20;4.80;;;;;;;24.09;44.59;99625.17;79589;1298;3011890;-63
2023/07/17 06:45:06;;;;;;;10.60;5.70;;;;;;;24.23;44.61;99628.94;78318;1297;3055122;-63
2023/07/17 06:47:33;;;;;;;12.30;4.60;;;;;;;24.37;44.05;99632.77;79427;1294;3013241;-62
2023/07/17 06:50:00;;;;;;;8.10;4.60;;;;;;;24.40;43.53;99630.64;79582;1295;3011888;-63
2023/07/17 06:52:28;;;;;;;10.60;4.80;;;;;;;24.47;43.71;99627.46;78234;1298;3049459;-63
2023/07/17 06:54:54;;;;;;;8.70;5.00;;;;;;;24.54;43.09;99633.41;79472;1298;3013047;-63
2023/07/17 06:57:22;;;;;;;12.90;6.20;;;;;;;24.66;43.39;99627.34;79443;1298;3011604;-61
2023/07/17 06:59:50;;;;;;;14.50;6.70;;;;;;;24.70;43.20;99631.30;78255;1297;3052898;-62
2023/07/17 07:02:18;;;;;;;14.30;7.20;;;;;;;24.65;43.08;99632.23;79534;1297;3013740;-64
2023/07/17 07:04:45;;;;;;;11.40;6.20;;;;;;;24.66;44.15;99630.73;79470;1294;3011863;-62
2023/07/17 07:07:13;;;;;;;15.00;7.00;;;;;;;24.79;44.87;99629.58;78301;1298;3050248;-63
2023/07/17 07:09:42;;;;;;;12.70;5.80;;;;;;;24.90;44.40;99630.21;79477;1295;3011900;-63
2023/07/17 07:12:09;;;;;;;17.60;8.40;;;;;;;24.97;44.33;99629.02;79503;1298;3011206;-61
2023/07/17 07:14:37;;;;;;;17.30;8.70;;;;;;;24.96;44.63;99630.13;78295;1295;3052739;-61
2023/07/17 07:17:03;;;;;;;17.90;9.80;;;;;;;24.94;43.32;99631.73;79479;1297;3018521;-60
2023/07/17 07:19:30;;;;;;;14.50;7.40;;;;;;;24.74;43.72;99634.73;79488;1297;3011587;-63
2023/07/17 07:21:58;;;;;;;13.20;7.30;;;;;;;24.69;44.84;99631.38;78219;1298;3027682;-63
2023/07/17 07:24:24;;;;;;;15.80;7.10;;;;;;;24.75;45.09;99627.87;79464;1295;3018531;-63
2023/07/17 07:26:51;;;;;;;15.50;8.20;;;;;;;24.88;44.92;99625.58;79950;1295;3011586;-61
2023/07/17 07:29:20;;;;;;;21.00;8.30;;;;;;;24.94;44.94;99619.01;78407;1297;3025847;-62
2023/07/17 07:31:46;;;;;;;14.60;7.90;;;;;;;24.99;44.80;99621.02;79742;1297;3012932;-61
2023/07/17 07:34:13;;;;;;;12.60;6.20;;;;;;;24.94;43.64;99618.77;79839;1298;3011751;-63
2023/07/17 07:36:41;;;;;;;13.30;6.50;;;;;;;25.03;42.45;99618.14;78587;1297;3025896;-61
2023/07/17 07:39:08;;;;;;;8.00;4.50;;;;;;;25.19;42.72;99618.51;79733;1295;3012924;-63
2023/07/17 07:41:35;;;;;;;12.00;4.90;;;;;;;25.36;42.36;99612.07;79532;1299;3011912;-62
2023/07/17 07:44:04;;;;;;;8.70;5.10;;;;;;;25.55;42.62;99609.02;78384;1294;3026666;-62
2023/07/17 07:46:31;;;;;;;7.40;3.70;;;;;;;25.53;41.48;99611.55;79468;1295;3013936;-62
2023/07/17 07:48:57;;;;;;;6.60;3.50;;;;;;;25.43;41.13;99605.30;79692;1295;3011859;-62
2023/07/17 07:51:25;;;;;;;8.70;4.00;;;;;;;25.56;41.11;99606.30;78302;1297;3048758;-62
2023/07/17 07:53:52;;;;;;;9.60;4.00;;;;;;;25.69;41.43;99604.05;79651;1295;3013817;-63
2023/07/17 07:56:18;;;;;;;8.60;2.90;;;;;;;25.71;40.01;99614.12;79576;1298;3013355;-62
2023/07/17 07:58:48;;;;;;;3.60;2.10;;;;;;;25.70;38.67;99611.89;78331;1298;3029644;-63
2023/07/17 08:01:14;;;;;;;6.10;2.60;;;;;;;25.60;37.83;99616.48;79784;1294;3013034;-63
2023/07/17 08:03:41;;;;;;;7.20;3.80;;;;;;;25.45;39.02;99615.74;79641;1294;3012830;-63
2023/07/17 08:06:09;;;;;;;7.30;3.20;;;;;;;25.39;39.92;99619.14;78384;1297;3049063;-63
2023/07/17 08:08:36;;;;;;;7.30;3.40;;;;;;;25.53;40.11;99612.76;79773;1295;3013333;-61
2023/07/17 08:11:03;;;;;;;6.90;3.20;;;;;;;25.62;39.91;99612.46;79717;1295;3011747;-63
2023/07/17 08:13:31;;;;;;;8.50;3.30;;;;;;;25.85;40.33;99608.99;78632;1298;3052623;-62
2023/07/17 08:15:57;;;;;;;7.20;3.10;;;;;;;25.98;40.64;99606.84;79829;1294;3018744;-63
2023/07/17 08:18:24;;;;;;;8.60;3.30;;;;;;;26.18;40.30;99606.95;79627;1297;3012766;-61
2023/07/17 08:20:52;;;;;;;4.80;2.60;;;;;;;26.22;39.11;99609.14;78515;1295;3028581;-62
2023/07/17 08:23:27;;;;;;;6.60;2.80;;;;;;;26.11;39.12;99602.37;79665;1295;3013576;-63
2023/07/17 08:25:55;;;;;;;4.80;2.60;;;;;;;26.09;39.11;99599.80;78463;1297;3053348;-61
2023/07/17 08:28:22;;;;;;;3.10;2.70;;;;;;;26.10;39.08;99595.23;79681;1298;3013458;-63
2023/07/17 08:30:52;;;;;;;6.80;2.30;;;;;;;26.29;39.11;99594.70;79589;1297;3011615;-64
2023/07/17 08:33:20;;;;;;;6.30;1.90;;;;;;;26.35;38.27;99602.02;78855;1295;3056826;-62
2023/07/17 08:35:48;;;;;;;2.10;1.60;;;;;;;26.16;37.12;99606.09;80208;1298;3014083;-62
2023/07/17 08:38:15;;;;;;;6.20;2.00;;;;;;;26.26;36.20;99596.41;79849;1295;3011263;-62
2023/07/17 08:40:46;;;;;;;3.60;2.10;;;;;;;26.47;36.30;99598.80;78462;1298;3053091;-60
2023/07/17 08:43:13;;;;;;;5.90;1.70;;;;;;;26.59;35.45;99597.42;79645;1298;3011724;-62
2023/07/17 08:45:41;;;;;;;2.40;1.60;;;;;;;26.32;36.00;99605.07;78219;1300;3025897;-62
2023/07/17 08:48:08;;;;;;;1.90;1.60;;;;;;;26.50;36.35;99595.69;79595;1297;3013089;-61
2023/07/17 08:50:34;;;;;;;6.60;2.10;;;;;;;26.58;35.94;99597.41;79648;1294;3011861;-63
2023/07/17 08:53:02;;;;;;;4.70;1.80;;;;;;;26.27;36.41;99596.48;78096;1295;3025560;-61
2023/07/17 08:55:32;;;;;;;8.50;1.90;;;;;;;26.42;36.66;99592.10;79689;1295;3013517;-64
2023/07/17 08:58:05;;;;;;;3.60;2.00;;;;;;;26.52;36.32;99599.23;79179;1295;3011968;-61
2023/07/17 09:00:32;;;;;;;4.30;2.00;;;;;;;26.48;36.20;99593.48;79445;1298;3011912;-61
2023/07/17 09:03:00;;;;;;;10.60;2.10;;;;;;;26.50;36.33;99588.90;78385;1298;3068734;-63
2023/07/17 09:05:27;;;;;;;9.10;2.10;;;;;;;26.57;36.00;99596.45;79651;1297;3013387;-66
2023/07/17 09:07:53;;;;;;;3.80;2.00;;;;;;;26.62;35.62;99589.48;79490;1297;3011487;-63
2023/07/17 09:10:22;;;;;;;7.50;2.30;;;;;;;26.63;36.15;99594.56;78405;1298;3026474;-62
2023/07/17 09:12:57;;;;;;;3.00;1.70;;;;;;;26.82;36.06;99588.10;79743;1296;3013309;-63
2023/07/17 09:15:25;;;;;;;4.40;1.80;;;;;;;26.90;35.66;99583.47;78614;1295;3053048;-62
2023/07/17 09:17:52;;;;;;;6.30;1.90;;;;;;;26.93;35.60;99586.48;79674;1298;3013777;-62
2023/07/17 09:20:19;;;;;;;4.80;1.90;;;;;;;26.98;35.62;99587.21;79618;1298;3011770;-62
2023/07/17 09:22:48;;;;;;;3.00;1.70;;;;;;;27.19;35.34;99589.70;78365;1298;3056290;-62
2023/07/17 09:25:15;;;;;;;4.20;1.70;;;;;;;27.53;34.80;99584.02;79642;1296;3013348;-63
2023/07/17 09:27:45;;;;;;;5.40;1.60;;;;;;;27.77;34.44;99580.40;79691;1294;3011962;-63
2023/07/17 09:30:16;;;;;;;3.70;1.70;;;;;;;27.68;34.37;99577.80;78657;1295;3052793;-63
2023/07/17 09:32:44;;;;;;;3.60;1.60;;;;;;;27.62;34.47;99578.44;79457;1297;3013868;-64
2023/07/17 09:35:12;;;;;;;3.70;1.80;;;;;;;27.60;34.39;99577.94;80762;1294;3025967;-64
2023/07/17 09:37:45;;;;;;;8.30;2.00;;;;;;;27.38;34.14;99583.42;82049;1294;3013149;-62
2023/07/17 09:40:15;;;;;;;5.10;2.00;;;;;;;27.26;34.68;99579.07;80753;1294;3049703;-64
2023/07/17 09:42:43;;;;;;;5.30;2.00;;;;;;;27.47;34.65;99567.91;81957;1294;3011438;-63
2023/07/17 09:45:11;;;;;;;9.90;2.00;;;;;;;27.62;34.46;99574.25;80767;1298;3026496;-66
2023/07/17 09:47:39;;;;;;;8.40;2.00;;;;;;;27.47;34.45;99577.80;79849;1298;3018873;-63
2023/07/17 09:50:10;;;;;;;3.60;1.80;;;;;;;27.53;34.13;99565.90;78992;1296;3013305;-62
2023/07/17 09:52:36;;;;;;;7.20;1.70;;;;;;;27.92;34.13;99570.53;79283;1298;3012918;-65
2023/07/17 09:55:04;;;;;;;7.80;2.00;;;;;;;28.22;33.34;99568.60;79497;1297;3013020;-68
2023/07/17 09:57:36;;;;;;;2.80;1.90;;;;;;;28.36;32.85;99563.46;78333;1297;3048782;-64
2023/07/17 10:00:11;;;;;;;5.40;1.90;;;;;;;28.21;32.96;99569.75;79471;1294;3011910;-65
2023/07/17 10:02:42;;;;;;;5.00;2.10;;;;;;;27.90;33.17;99571.84;78251;1297;3050523;-63
2023/07/17 10:05:08;;;;;;;4.80;1.60;;;;;;;27.64;33.24;99570.19;79560;1295;3013623;-64
2023/07/17 10:07:38;;;;;;;3.00;1.60;;;;;;;27.68;33.38;99560.11;79566;1294;3011624;-66
2023/07/17 10:10:09;;;;;;;2.50;1.90;;;;;;;27.80;33.54;99567.33;78469;1295;3049906;-65
2023/07/17 10:12:37;;;;;;;4.50;2.40;;;;;;;27.99;33.61;99557.51;79725;1294;3011743;-65
2023/07/17 10:15:07;;;;;;;2.20;1.60;;;;;;;28.13;33.34;99561.69;78941;1295;3013768;-64
2023/07/17 10:17:34;;;;;;;8.20;2.00;;;;;;;28.10;33.05;99560.61;79443;1298;3013085;-64
2023/07/17 10:20:07;;;;;;;4.50;1.80;;;;;;;28.07;32.41;99554.45;79488;1298;3011638;-62
2023/07/17 10:22:40;;;;;;;3.40;1.80;;;;;;;28.28;32.82;99555.98;78320;1297;3051769;-63
2023/07/17 10:25:09;;;;;;;6.60;2.30;;;;;;;28.16;32.94;99565.77;79604;1295;3011894;-67
2023/07/17 10:27:43;;;;;;;7.30;2.20;;;;;;;28.31;32.69;99553.11;78500;1293;3051393;-63
2023/07/17 10:30:32;;;;;;;4.10;1.90;;;;;;;28.41;32.84;99558.30;79478;1295;3011713;-63
2023/07/17 10:33:19;;;;;;;5.50;2.20;;;;;;;28.37;32.63;99559.69;78311;1295;3049298;-61
2023/07/17 10:35:51;;;;;;;2.10;1.70;;;;;;;28.49;32.32;99554.27;78114;1298;3053706;-63
2023/07/17 10:38:22;;;;;;;2.80;1.90;;;;;;;28.46;32.52;99553.06;77601;1295;3012910;-65
2023/07/17 10:41:10;;;;;;;4.80;2.30;;;;;;;28.49;32.49;99546.17;78227;1297;3052904;-62
2023/07/17 10:44:00;;;;;;;8.70;2.20;;;;;;;28.25;32.47;99544.21;77919;1295;3052625;-64
2023/07/17 10:46:29;;;;;;;3.10;2.40;;;;;;;28.08;33.19;99548.55;78203;1298;3068701;-63
2023/07/17 10:49:13;;;;;;;5.30;2.70;;;;;;;28.06;33.19;99546.10;79605;1295;3014924;-62
2023/07/17 10:51:48;;;;;;;4.80;2.90;;;;;;;27.78;33.42;99543.74;78146;1297;3049884;-64
2023/07/17 10:54:17;;;;;;;7.60;2.10;;;;;;;27.89;33.34;99543.73;78321;1298;3052579;-66
2023/07/17 10:56:45;;;;;;;3.40;2.10;;;;;;;28.38;32.69;99534.33;79690;1298;3013765;-64
2023/07/17 10:59:14;;;;;;;3.70;2.00;;;;;;;28.69;32.54;99533.20;79168;1295;3011657;-67
2023/07/17 11:01:41;;;;;;;4.30;1.90;;;;;;;28.86;32.23;99535.43;79630;1298;3013058;-69
2023/07/17 11:04:07;;;;;;;4.60;2.50;;;;;;;29.19;31.87;99532.73;79334;1297;3012795;-65
2023/07/17 11:07:06;;;;;;;7.20;2.30;;;;;;;29.18;31.75;99530.89;78440;1294;3059400;-65
2023/07/17 11:09:37;;;;;;;9.40;2.20;;;;;;;28.98;32.03;99533.61;78529;1296;3051426;-66
2023/07/17 11:12:06;;;;;;;5.60;2.20;;;;;;;28.87;32.59;99529.64;79510;1294;3012861;-65
2023/07/17 11:14:32;;;;;;;7.10;2.10;;;;;;;29.00;32.49;99534.40;79496;1294;3011906;-62
2023/07/17 11:17:00;;;;;;;5.40;2.50;;;;;;;29.27;32.45;99526.66;78440;1298;3053439;-65